Airfield :
LOGIN :

Register | Disclaimer

   EN    FR    IT 

 










Legend :    VFR   Marginal VFR   IFR   Intensive IFR   Very Intensive IFR
Visi :
Ceiling :
>= 8 km
>= 3000ft
5 to 8 km
1000 to 3000 ft
1500m to 5 km
500 to 1000 ft
800 to 1500m
200 to 500 ft
< 800m
< 200 ft
Symbols :   Thunderstorms  Fog  Heavy snow  Heavy precipitations  Wind > 20 kt
SIGMETs :     Misc.  Thunderstorms  Icing  Turbulence  Mountain Waves  Volcanic Ashes







- Airport Elevation : 1416 ft
- IATA code : ZRH


LSZH - Zurich

CURRENT METAR :
  • 301220Z 02007KT 350V060 CAVOK 19/06 Q1025 NOSIG

EXPIRED METARs :
  • 301150Z 03007KT 330V070 CAVOK 18/06 Q1025 NOSIG
  • 301120Z 05008KT CAVOK 17/06 Q1026 NOSIG
  • 301050Z 07006KT 010V140 CAVOK 17/06 Q1026 NOSIG
  • 301020Z 05007KT 360V110 CAVOK 16/06 Q1027 NOSIG
  • 300950Z 02006KT 350V070 CAVOK 15/06 Q1027 NOSIG
  • 300920Z 03005KT 320V080 CAVOK 15/06 Q1027 NOSIG

TAF TAF LSZH
Valid from the 30 at 12:00 until the 31 at 18:00 UTC


301125Z 3012/3118 05006KT CAVOK TX20/3014Z TN03/3105Z TX23/3114Z
BECMG 3016/3019 VRB03KT
ATIS : +41 43 816 2295 (DEP) +41 43 816 2294 (ARR)
No reported NOTAMs for that airfield.



MET'MAP, your aeronautical weather chart ! - Copyright ORBIFLY December 2007 - Disclaimer

ORBIFLY MET'MAP TEAM :

Programming & Development : Alexandra Zaïnal
Concept & Development : Baudouin d'Aumeries
Co-Development & Prog : Marc-Olivier Méhu
Technical & hardware support : Manuel Goepfert

Contact : metmap@orbifly.com




SOURCES & CREDITS :

   NOAA